Time;durP1;ratioP1;P1;durP2;ratioP2;P2;SDS_P1;SDS_P2;PMS_P1;PMS_P2;Temp;Humidity;BMP_temperature;BMP_pressure;BME280_temperature;BME280_humidity;BME280_pressure;Samples;Min_cycle;Max_cycle;Signal;HPM_P1;HPM_P2
2024/01/03 00:00:03;;;;;;;8.32;1.83;;;;;;;;;;5052024;28;20040;-62
2024/01/03 00:02:28;;;;;;;7.03;1.63;;;;;;;;;;5049703;28;20037;-63
2024/01/03 00:04:54;;;;;;;9.07;1.95;;;;;;;;;;5042057;28;20083;-62
2024/01/03 00:07:19;;;;;;;10.45;2.22;;;;;;;;;;5052997;28;20037;-62
2024/01/03 00:09:45;;;;;;;13.32;2.47;;;;;;;;;;5051838;28;20099;-63
2024/01/03 00:12:22;;;;;;;9.07;1.95;;;;;;;;;;5051905;28;20033;-62
2024/01/03 00:14:47;;;;;;;10.00;1.90;;;;;;;;;;5052947;28;20025;-63
2024/01/03 00:17:13;;;;;;;6.03;1.67;;;;;;;;;;5054597;28;20427;-62
2024/01/03 00:19:39;;;;;;;6.93;1.98;;;;;;;;;;5051281;28;20040;-62
2024/01/03 00:22:10;;;;;;;8.77;1.95;;;;;;;;;;5047271;28;20056;-62
2024/01/03 00:24:44;;;;;;;7.40;1.67;;;;;;;;;;5050778;28;20049;-62
2024/01/03 00:27:10;;;;;;;6.65;1.88;;;;;;;;;;5053209;28;20048;-62
2024/01/03 00:29:52;;;;;;;6.60;2.35;;;;;;;;;;5048669;28;20385;-62
2024/01/03 00:32:22;;;;;;;6.45;1.30;;;;;;;;;;5053616;28;20397;-62
2024/01/03 00:34:47;;;;;;;9.75;1.98;;;;;;;;;;5055777;28;20037;-62
2024/01/03 00:37:24;;;;;;;9.85;1.45;;;;;;;;;;5052778;28;20036;-62
2024/01/03 00:39:50;;;;;;;3.75;1.33;;;;;;;;;;5046649;28;20060;-62
2024/01/03 00:42:16;;;;;;;8.88;1.50;;;;;;;;;;5051059;28;20060;-62
2024/01/03 00:44:42;;;;;;;10.32;2.20;;;;;;;;;;5050217;28;20504;-62
2024/01/03 00:47:08;;;;;;;14.23;1.55;;;;;;;;;;5032779;28;20030;-62
2024/01/03 00:49:35;;;;;;;10.27;2.33;;;;;;;;;;5043664;28;20083;-62
2024/01/03 00:52:01;;;;;;;5.50;1.92;;;;;;;;;;5058124;28;20487;-63
2024/01/03 00:54:30;;;;;;;9.50;1.83;;;;;;;;;;5050302;28;20533;-61
2024/01/03 00:56:56;;;;;;;12.13;2.45;;;;;;;;;;5046484;28;20458;-63
2024/01/03 00:59:21;;;;;;;13.20;2.10;;;;;;;;;;5047981;28;20033;-63
2024/01/03 01:01:47;;;;;;;9.82;1.88;;;;;;;;;;5052869;28;20021;-62
2024/01/03 01:04:14;;;;;;;9.18;2.03;;;;;;;;;;5035742;28;20064;-63
2024/01/03 01:06:43;;;;;;;5.78;1.67;;;;;;;;;;5052351;28;20176;-62
2024/01/03 01:09:08;;;;;;;11.85;2.30;;;;;;;;;;5049110;28;20025;-62
2024/01/03 01:11:37;;;;;;;7.10;1.98;;;;;;;;;;5049947;28;20454;-62
2024/01/03 01:14:02;;;;;;;8.38;2.20;;;;;;;;;;5052191;28;20481;-62
2024/01/03 01:16:28;;;;;;;9.05;1.63;;;;;;;;;;5050065;28;20025;-63
2024/01/03 01:18:53;;;;;;;7.55;1.95;;;;;;;;;;5025923;28;20080;-62
2024/01/03 01:21:18;;;;;;;10.15;1.55;;;;;;;;;;5045301;28;20466;-62
2024/01/03 01:23:44;;;;;;;11.30;2.10;;;;;;;;;;5051089;28;20114;-62
2024/01/03 01:26:10;;;;;;;6.82;1.73;;;;;;;;;;5055525;28;20028;-62
2024/01/03 01:28:35;;;;;;;7.95;1.83;;;;;;;;;;5046524;28;20041;-62
2024/01/03 01:31:00;;;;;;;9.57;1.80;;;;;;;;;;5052496;28;20060;-62
2024/01/03 01:33:26;;;;;;;9.13;2.22;;;;;;;;;;5050406;28;20029;-62
2024/01/03 01:35:51;;;;;;;10.25;1.90;;;;;;;;;;5036218;28;20068;-63
2024/01/03 01:38:17;;;;;;;8.93;1.95;;;;;;;;;;5048557;28;20052;-62
2024/01/03 01:40:42;;;;;;;8.18;2.00;;;;;;;;;;5050221;28;20036;-63
2024/01/03 01:43:08;;;;;;;11.65;1.75;;;;;;;;;;5049495;28;20358;-62
2024/01/03 01:45:33;;;;;;;5.78;1.92;;;;;;;;;;5050873;28;20036;-62
2024/01/03 01:47:59;;;;;;;12.25;1.92;;;;;;;;;;5046343;28;20163;-62
2024/01/03 01:50:25;;;;;;;6.68;1.67;;;;;;;;;;5050276;28;20381;-63
2024/01/03 01:52:52;;;;;;;7.95;2.17;;;;;;;;;;5049599;28;20029;-62
2024/01/03 01:55:19;;;;;;;7.15;1.70;;;;;;;;;;5051256;28;20029;-63
2024/01/03 01:57:45;;;;;;;7.80;2.28;;;;;;;;;;5049223;28;20037;-61
2024/01/03 02:00:12;;;;;;;5.88;1.58;;;;;;;;;;5032675;28;20036;-62
2024/01/03 02:02:39;;;;;;;8.45;1.90;;;;;;;;;;5032409;28;20505;-63
2024/01/03 02:05:05;;;;;;;7.72;1.90;;;;;;;;;;5051218;28;20032;-62
2024/01/03 02:07:30;;;;;;;10.48;2.20;;;;;;;;;;5043937;28;20110;-62
2024/01/03 02:09:56;;;;;;;7.22;1.90;;;;;;;;;;5049929;28;20119;-62
2024/01/03 02:12:28;;;;;;;9.27;1.98;;;;;;;;;;5049748;28;20424;-62
2024/01/03 02:14:53;;;;;;;7.00;1.95;;;;;;;;;;5049688;28;20065;-62
2024/01/03 02:17:20;;;;;;;9.98;1.88;;;;;;;;;;5061416;28;20448;-62
2024/01/03 02:19:45;;;;;;;9.43;2.13;;;;;;;;;;5047255;28;20032;-62
2024/01/03 02:22:11;;;;;;;7.25;1.55;;;;;;;;;;5048432;28;20393;-62
2024/01/03 02:24:36;;;;;;;11.95;2.25;;;;;;;;;;5033342;28;20053;-63
2024/01/03 02:27:02;;;;;;;8.80;1.77;;;;;;;;;;5031900;28;20092;-61
2024/01/03 02:29:27;;;;;;;12.45;2.38;;;;;;;;;;5045869;28;20087;-61
2024/01/03 02:31:53;;;;;;;10.88;2.35;;;;;;;;;;5038080;28;20037;-60
2024/01/03 02:34:18;;;;;;;10.68;2.20;;;;;;;;;;5057712;28;20086;-62
2024/01/03 02:36:47;;;;;;;13.27;2.35;;;;;;;;;;5049663;28;20029;-61
2024/01/03 02:39:13;;;;;;;9.95;2.60;;;;;;;;;;5049686;28;20099;-61
2024/01/03 02:41:38;;;;;;;9.00;1.98;;;;;;;;;;5049390;28;20028;-62
2024/01/03 02:44:04;;;;;;;6.38;1.98;;;;;;;;;;5049028;28;20078;-61
2024/01/03 02:46:29;;;;;;;7.30;2.00;;;;;;;;;;5049626;28;20052;-62
2024/01/03 02:48:54;;;;;;;7.30;1.52;;;;;;;;;;5049704;28;20033;-61
2024/01/03 02:51:21;;;;;;;13.73;2.38;;;;;;;;;;5061018;28;20032;-62
2024/01/03 02:53:47;;;;;;;8.05;1.95;;;;;;;;;;5050078;28;20534;-62
2024/01/03 02:56:13;;;;;;;6.72;2.05;;;;;;;;;;5046351;28;20170;-62
2024/01/03 02:58:38;;;;;;;5.45;1.80;;;;;;;;;;5048241;28;20063;-63
2024/01/03 03:01:04;;;;;;;8.00;2.05;;;;;;;;;;5048894;28;20520;-63
2024/01/03 03:03:30;;;;;;;7.53;1.77;;;;;;;;;;5050615;28;20056;-60
2024/01/03 03:05:55;;;;;;;10.23;1.65;;;;;;;;;;5032866;28;20033;-61
2024/01/03 03:08:21;;;;;;;5.30;1.52;;;;;;;;;;5049064;28;20491;-61
2024/01/03 03:10:46;;;;;;;6.53;1.52;;;;;;;;;;5050929;28;20029;-61
2024/01/03 03:13:11;;;;;;;8.15;1.63;;;;;;;;;;5051976;28;20393;-61
2024/01/03 03:15:37;;;;;;;7.13;1.60;;;;;;;;;;5032766;28;20509;-62
2024/01/03 03:18:02;;;;;;;7.88;1.85;;;;;;;;;;5035152;28;20033;-61
2024/01/03 03:20:28;;;;;;;7.05;2.00;;;;;;;;;;5048888;28;20031;-61
2024/01/03 03:22:53;;;;;;;10.07;2.17;;;;;;;;;;5052706;28;20028;-61
2024/01/03 03:25:18;;;;;;;14.45;2.22;;;;;;;;;;5065860;28;20083;-62
2024/01/03 03:27:44;;;;;;;8.95;2.35;;;;;;;;;;5065298;28;20036;-61
2024/01/03 03:30:10;;;;;;;7.93;1.80;;;;;;;;;;5034853;28;20025;-62
2024/01/03 03:32:35;;;;;;;7.45;1.90;;;;;;;;;;5033610;28;20544;-62
2024/01/03 03:35:01;;;;;;;6.82;1.92;;;;;;;;;;5031084;28;20121;-62
2024/01/03 03:37:26;;;;;;;3.97;1.65;;;;;;;;;;5052699;28;20480;-61
2024/01/03 03:39:51;;;;;;;6.15;1.52;;;;;;;;;;5054370;28;20029;-63
2024/01/03 03:42:18;;;;;;;9.75;1.92;;;;;;;;;;5054393;28;20064;-63
2024/01/03 03:44:44;;;;;;;8.52;1.63;;;;;;;;;;5039677;28;20412;-62
2024/01/03 03:47:09;;;;;;;9.60;2.13;;;;;;;;;;5056265;28;20120;-62
2024/01/03 03:49:35;;;;;;;6.03;1.30;;;;;;;;;;5056670;28;20036;-62
2024/01/03 03:52:00;;;;;;;5.20;1.65;;;;;;;;;;5057041;28;20029;-63
2024/01/03 03:54:25;;;;;;;7.10;1.75;;;;;;;;;;5057288;28;20120;-63
2024/01/03 03:56:51;;;;;;;3.83;1.10;;;;;;;;;;5051642;28;20119;-62
2024/01/03 03:59:16;;;;;;;3.03;1.23;;;;;;;;;;5053114;28;20025;-62
2024/01/03 04:01:49;;;;;;;7.63;1.63;;;;;;;;;;5055891;28;20880;-63
2024/01/03 04:04:15;;;;;;;6.05;1.50;;;;;;;;;;5045865;28;20053;-65
2024/01/03 04:06:41;;;;;;;4.20;1.40;;;;;;;;;;5052691;28;20017;-62
2024/01/03 04:09:06;;;;;;;8.45;1.40;;;;;;;;;;5053497;28;20032;-61
2024/01/03 04:11:32;;;;;;;6.75;1.90;;;;;;;;;;5050300;28;20037;-62
2024/01/03 04:13:57;;;;;;;6.03;1.70;;;;;;;;;;5050437;28;20120;-60
2024/01/03 04:16:22;;;;;;;7.40;1.25;;;;;;;;;;5035705;28;20029;-62
2024/01/03 04:18:48;;;;;;;5.85;1.33;;;;;;;;;;5054149;28;20473;-61
2024/01/03 04:21:13;;;;;;;8.13;1.65;;;;;;;;;;5053556;28;20116;-61
2024/01/03 04:23:39;;;;;;;5.13;1.50;;;;;;;;;;5052317;28;20052;-61
2024/01/03 04:26:04;;;;;;;9.55;1.80;;;;;;;;;;5023160;28;20349;-61
2024/01/03 04:28:29;;;;;;;7.38;1.83;;;;;;;;;;5033575;28;20025;-60
2024/01/03 04:30:55;;;;;;;5.43;1.85;;;;;;;;;;5046816;28;20029;-60
2024/01/03 04:33:20;;;;;;;9.07;2.10;;;;;;;;;;5052514;28;20044;-61
2024/01/03 04:35:45;;;;;;;5.25;1.60;;;;;;;;;;5034516;28;20033;-60
2024/01/03 04:38:11;;;;;;;6.22;1.50;;;;;;;;;;5053864;28;20104;-56
2024/01/03 04:40:37;;;;;;;7.93;1.70;;;;;;;;;;5052897;28;20055;-58
2024/01/03 04:43:02;;;;;;;7.35;1.65;;;;;;;;;;5053901;28;20449;-59
2024/01/03 04:45:27;;;;;;;9.98;2.17;;;;;;;;;;5052368;28;20037;-60
2024/01/03 04:47:53;;;;;;;7.03;2.30;;;;;;;;;;5053861;28;20025;-59
2024/01/03 04:50:18;;;;;;;9.75;2.00;;;;;;;;;;5053571;28;20499;-60
2024/01/03 04:52:44;;;;;;;9.07;1.65;;;;;;;;;;5052559;28;20818;-60
2024/01/03 04:55:10;;;;;;;4.80;1.65;;;;;;;;;;5035945;28;20527;-60
2024/01/03 04:57:35;;;;;;;20.35;1.80;;;;;;;;;;5052813;28;20451;-60
2024/01/03 05:00:01;;;;;;;5.93;1.80;;;;;;;;;;5053461;28;20033;-59
2024/01/03 05:02:26;;;;;;;12.23;1.92;;;;;;;;;;5052769;28;20075;-59
2024/01/03 05:04:52;;;;;;;6.50;2.10;;;;;;;;;;5053659;28;20037;-59
2024/01/03 05:07:18;;;;;;;8.02;1.20;;;;;;;;;;5053308;28;20392;-58
2024/01/03 05:09:44;;;;;;;7.13;1.80;;;;;;;;;;5052466;28;20043;-61
2024/01/03 05:12:09;;;;;;;6.75;1.65;;;;;;;;;;5053266;28;20100;-60
2024/01/03 05:14:34;;;;;;;5.72;1.50;;;;;;;;;;5052228;28;20452;-61
2024/01/03 05:17:00;;;;;;;5.63;1.77;;;;;;;;;;5053430;28;20025;-60
2024/01/03 05:19:26;;;;;;;11.20;2.33;;;;;;;;;;5052751;28;20037;-61
2024/01/03 05:21:51;;;;;;;8.02;1.67;;;;;;;;;;5053150;28;20447;-60
2024/01/03 05:24:16;;;;;;;5.90;1.50;;;;;;;;;;5053031;28;20051;-60
2024/01/03 05:26:42;;;;;;;3.10;1.23;;;;;;;;;;5052379;28;20143;-61
2024/01/03 05:29:07;;;;;;;5.25;1.20;;;;;;;;;;5034877;28;20121;-60
2024/01/03 05:31:33;;;;;;;4.45;1.40;;;;;;;;;;5052330;28;20462;-60
2024/01/03 05:33:58;;;;;;;4.05;1.20;;;;;;;;;;5052039;28;20032;-60
2024/01/03 05:36:23;;;;;;;6.53;1.85;;;;;;;;;;5052516;28;20385;-60
2024/01/03 05:38:49;;;;;;;5.22;1.30;;;;;;;;;;5052367;28;20101;-59
2024/01/03 05:41:14;;;;;;;3.47;1.15;;;;;;;;;;5053001;28;20033;-60
2024/01/03 05:43:39;;;;;;;7.65;1.67;;;;;;;;;;5052021;28;20033;-60
2024/01/03 05:46:05;;;;;;;6.57;1.92;;;;;;;;;;5052870;28;20025;-60
2024/01/03 05:48:30;;;;;;;5.50;1.63;;;;;;;;;;5051511;28;20054;-60
2024/01/03 05:50:56;;;;;;;4.63;1.58;;;;;;;;;;5052734;28;20028;-59
2024/01/03 05:53:21;;;;;;;6.63;1.75;;;;;;;;;;5052895;28;20035;-61
2024/01/03 05:55:46;;;;;;;4.55;1.08;;;;;;;;;;5051801;28;20059;-60
2024/01/03 05:58:12;;;;;;;5.25;1.20;;;;;;;;;;5052693;28;20472;-59
2024/01/03 06:00:37;;;;;;;2.45;0.90;;;;;;;;;;5052047;28;20024;-62
2024/01/03 06:03:03;;;;;;;3.45;1.08;;;;;;;;;;5052018;28;20036;-62
2024/01/03 06:05:28;;;;;;;2.85;1.38;;;;;;;;;;5052162;28;20037;-62
2024/01/03 06:07:54;;;;;;;1.80;0.82;;;;;;;;;;5052325;28;20450;-61
2024/01/03 06:10:19;;;;;;;3.95;1.35;;;;;;;;;;5052685;28;20091;-61
2024/01/03 06:12:44;;;;;;;5.28;1.25;;;;;;;;;;5051464;28;20764;-60
2024/01/03 06:15:10;;;;;;;3.08;1.02;;;;;;;;;;5052224;28;20359;-61
2024/01/03 06:17:36;;;;;;;2.85;0.98;;;;;;;;;;5051291;28;20029;-61
2024/01/03 06:20:01;;;;;;;3.40;1.10;;;;;;;;;;5052598;28;20454;-61
2024/01/03 06:22:27;;;;;;;2.38;1.00;;;;;;;;;;5051604;28;20040;-61
2024/01/03 06:24:52;;;;;;;4.95;1.45;;;;;;;;;;5052054;28;20198;-61
2024/01/03 06:27:17;;;;;;;5.32;1.60;;;;;;;;;;5052204;28;20414;-61
2024/01/03 06:29:43;;;;;;;3.17;1.10;;;;;;;;;;5051231;28;20040;-61
2024/01/03 06:32:08;;;;;;;2.90;1.00;;;;;;;;;;5051693;28;20031;-61
2024/01/03 06:34:34;;;;;;;5.53;1.50;;;;;;;;;;5033125;28;20145;-62
2024/01/03 06:37:00;;;;;;;3.50;1.52;;;;;;;;;;5052026;28;20025;-61
2024/01/03 06:39:26;;;;;;;3.53;1.20;;;;;;;;;;5052035;28;20126;-62
2024/01/03 06:41:51;;;;;;;3.40;1.17;;;;;;;;;;5051172;28;20068;-62
2024/01/03 06:44:17;;;;;;;5.38;1.35;;;;;;;;;;5052028;28;20033;-63
2024/01/03 06:46:42;;;;;;;4.25;1.35;;;;;;;;;;5050287;28;20029;-61
2024/01/03 06:49:07;;;;;;;3.55;1.30;;;;;;;;;;5051726;28;20040;-60
2024/01/03 06:51:33;;;;;;;5.15;1.35;;;;;;;;;;5051051;28;20098;-61
2024/01/03 06:53:58;;;;;;;4.97;1.38;;;;;;;;;;5051610;28;20544;-60
2024/01/03 06:56:24;;;;;;;2.38;1.20;;;;;;;;;;5051844;28;20028;-60
2024/01/03 06:58:50;;;;;;;5.05;1.90;;;;;;;;;;5050560;28;20708;-60
2024/01/03 07:01:16;;;;;;;3.08;1.27;;;;;;;;;;5051520;28;20037;-61
2024/01/03 07:03:41;;;;;;;5.50;1.38;;;;;;;;;;5050483;28;20041;-61
2024/01/03 07:06:06;;;;;;;3.53;1.30;;;;;;;;;;5051740;28;20377;-62
2024/01/03 07:08:32;;;;;;;4.30;1.20;;;;;;;;;;5051060;28;20027;-61
2024/01/03 07:10:57;;;;;;;5.60;1.50;;;;;;;;;;5051225;28;20388;-63
2024/01/03 07:13:23;;;;;;;10.45;1.73;;;;;;;;;;5051515;28;20133;-61
2024/01/03 07:15:48;;;;;;;1.92;1.08;;;;;;;;;;5050829;28;20457;-62
2024/01/03 07:18:13;;;;;;;4.18;1.20;;;;;;;;;;5051756;28;20032;-62
2024/01/03 07:20:39;;;;;;;4.40;1.23;;;;;;;;;;5050556;28;20029;-61
2024/01/03 07:23:04;;;;;;;3.70;1.17;;;;;;;;;;5033599;28;20028;-60
2024/01/03 07:25:29;;;;;;;7.45;1.65;;;;;;;;;;5050911;28;20517;-59
2024/01/03 07:27:55;;;;;;;5.10;1.58;;;;;;;;;;5050477;28;20025;-57
2024/01/03 07:30:25;;;;;;;5.10;1.40;;;;;;;;;;5033685;28;20115;-57
2024/01/03 07:32:51;;;;;;;7.22;1.98;;;;;;;;;;5050326;28;20719;-57
2024/01/03 07:35:17;;;;;;;6.22;1.70;;;;;;;;;;5051467;28;20037;-58
2024/01/03 07:37:42;;;;;;;5.03;1.20;;;;;;;;;;5050665;28;20025;-62
2024/01/03 07:40:08;;;;;;;7.55;1.48;;;;;;;;;;5051666;28;20456;-60
2024/01/03 07:42:33;;;;;;;10.18;2.35;;;;;;;;;;5050797;28;20502;-60
2024/01/03 07:44:59;;;;;;;6.15;2.00;;;;;;;;;;5050994;28;20377;-59
2024/01/03 07:47:24;;;;;;;5.75;1.60;;;;;;;;;;5046761;28;20416;-59
2024/01/03 07:49:49;;;;;;;7.57;2.17;;;;;;;;;;5030655;28;20044;-59
2024/01/03 07:52:15;;;;;;;8.10;2.22;;;;;;;;;;5031454;28;20121;-60
2024/01/03 07:54:40;;;;;;;7.85;2.00;;;;;;;;;;5036274;28;20453;-60
2024/01/03 07:57:05;;;;;;;8.77;2.33;;;;;;;;;;5052763;28;20033;-60
2024/01/03 07:59:32;;;;;;;12.27;3.00;;;;;;;;;;5054950;28;20047;-60
2024/01/03 08:01:57;;;;;;;7.97;2.47;;;;;;;;;;5053968;28;20028;-59
2024/01/03 08:04:23;;;;;;;9.63;3.10;;;;;;;;;;5054821;28;20389;-60
2024/01/03 08:06:48;;;;;;;10.27;2.75;;;;;;;;;;5053850;28;20056;-59
2024/01/03 08:09:14;;;;;;;10.68;2.63;;;;;;;;;;5054289;28;20021;-59
2024/01/03 08:11:39;;;;;;;7.90;2.05;;;;;;;;;;5053800;28;20040;-61
2024/01/03 08:14:04;;;;;;;9.55;2.28;;;;;;;;;;5054219;28;20100;-60
2024/01/03 08:16:30;;;;;;;10.13;1.75;;;;;;;;;;5054268;28;20037;-58
2024/01/03 08:18:56;;;;;;;10.60;1.80;;;;;;;;;;5053702;28;20021;-60
2024/01/03 08:21:21;;;;;;;8.90;1.83;;;;;;;;;;5036562;28;20029;-59
2024/01/03 08:23:46;;;;;;;4.22;1.20;;;;;;;;;;5052783;28;20040;-58
2024/01/03 08:26:12;;;;;;;2.97;1.10;;;;;;;;;;5054267;28;20025;-59
2024/01/03 08:28:41;;;;;;;2.45;1.05;;;;;;;;;;5053433;28;20021;-59
2024/01/03 08:31:15;;;;;;;2.95;1.10;;;;;;;;;;5054217;28;20067;-58
2024/01/03 08:33:40;;;;;;;3.33;1.30;;;;;;;;;;5052747;28;20029;-59
2024/01/03 08:36:13;;;;;;;2.20;1.10;;;;;;;;;;5053785;28;20029;-60
2024/01/03 08:38:40;;;;;;;1.80;1.17;;;;;;;;;;5053381;28;20107;-60
2024/01/03 08:41:16;;;;;;;3.25;1.13;;;;;;;;;;5054046;28;20033;-58
2024/01/03 08:43:42;;;;;;;3.47;1.17;;;;;;;;;;5035274;28;20381;-57
2024/01/03 08:46:08;;;;;;;2.47;1.10;;;;;;;;;;5054102;28;20052;-58
2024/01/03 08:48:33;;;;;;;3.53;1.27;;;;;;;;;;5053585;28;20457;-58
2024/01/03 08:50:59;;;;;;;0.80;0.80;;;;;;;;;;5035209;28;20041;-61
2024/01/03 08:53:24;;;;;;;0.57;0.57;;;;;;;;;;5053679;28;20029;-59
2024/01/03 08:55:49;;;;;;;1.13;0.85;;;;;;;;;;5052689;28;20565;-60
2024/01/03 08:58:15;;;;;;;3.63;0.70;;;;;;;;;;5054043;28;20037;-60
2024/01/03 09:00:43;;;;;;;0.88;0.70;;;;;;;;;;5052835;28;20378;-60
2024/01/03 09:03:08;;;;;;;1.75;1.00;;;;;;;;;;5053559;28;20063;-60
2024/01/03 09:05:33;;;;;;;1.13;0.90;;;;;;;;;;5035897;28;20069;-60
2024/01/03 09:07:59;;;;;;;1.10;0.82;;;;;;;;;;5052039;28;20971;-60
2024/01/03 09:10:24;;;;;;;3.15;1.20;;;;;;;;;;5053182;28;20029;-60
2024/01/03 09:12:50;;;;;;;3.05;0.98;;;;;;;;;;5052426;28;20350;-61
2024/01/03 09:15:15;;;;;;;6.05;1.40;;;;;;;;;;5053238;28;20051;-61
2024/01/03 09:17:42;;;;;;;4.13;1.83;;;;;;;;;;5052368;28;20111;-61
2024/01/03 09:20:11;;;;;;;4.93;1.50;;;;;;;;;;5053376;28;20036;-59
2024/01/03 09:22:37;;;;;;;3.75;1.30;;;;;;;;;;5053355;28;20032;-59
2024/01/03 09:25:03;;;;;;;5.05;1.33;;;;;;;;;;5052062;28;20041;-59
2024/01/03 09:27:28;;;;;;;3.63;1.52;;;;;;;;;;5052018;28;20052;-59
2024/01/03 09:29:53;;;;;;;3.05;1.33;;;;;;;;;;5052616;28;20059;-59
2024/01/03 09:32:19;;;;;;;5.93;1.70;;;;;;;;;;5045589;28;20025;-59
2024/01/03 09:34:44;;;;;;;2.97;1.33;;;;;;;;;;5032195;28;20033;-59
2024/01/03 09:37:10;;;;;;;12.15;1.98;;;;;;;;;;5033130;28;20116;-59
2024/01/03 09:39:35;;;;;;;7.50;2.10;;;;;;;;;;5033136;28;20029;-60
2024/01/03 09:42:02;;;;;;;12.40;1.70;;;;;;;;;;5032259;28;20112;-60
2024/01/03 09:44:29;;;;;;;8.25;2.33;;;;;;;;;;5032867;28;20036;-60
2024/01/03 09:46:54;;;;;;;8.18;1.83;;;;;;;;;;5039877;28;20021;-60
2024/01/03 09:49:20;;;;;;;4.18;1.17;;;;;;;;;;5052799;28;20029;-60
2024/01/03 09:51:47;;;;;;;8.43;1.63;;;;;;;;;;5051503;28;20468;-60
2024/01/03 09:54:12;;;;;;;7.05;1.77;;;;;;;;;;5052479;28;20067;-60
2024/01/03 09:56:41;;;;;;;9.02;1.70;;;;;;;;;;5052656;28;20064;-60
2024/01/03 09:59:08;;;;;;;11.82;1.98;;;;;;;;;;5052019;28;20377;-60
2024/01/03 10:01:34;;;;;;;6.07;1.77;;;;;;;;;;5052328;28;20037;-60
2024/01/03 10:03:59;;;;;;;8.82;1.60;;;;;;;;;;5051580;28;20740;-60
2024/01/03 10:06:26;;;;;;;8.95;1.60;;;;;;;;;;5052585;28;20477;-59
2024/01/03 10:09:02;;;;;;;7.88;1.60;;;;;;;;;;5051542;28;20029;-60
2024/01/03 10:11:28;;;;;;;8.52;2.10;;;;;;;;;;5052417;28;20479;-58
2024/01/03 10:13:55;;;;;;;7.88;2.08;;;;;;;;;;5051036;28;20119;-58
2024/01/03 10:16:28;;;;;;;9.88;1.77;;;;;;;;;;5052038;28;20071;-58
2024/01/03 10:19:17;;;;;;;10.63;2.10;;;;;;;;;;5032975;28;20087;-58
2024/01/03 10:21:53;;;;;;;12.32;2.20;;;;;;;;;;5031232;28;20091;-59
2024/01/03 10:24:21;;;;;;;10.32;2.15;;;;;;;;;;5031990;28;20440;-58
2024/01/03 10:26:47;;;;;;;7.97;2.08;;;;;;;;;;5031383;28;20029;-58
2024/01/03 10:29:17;;;;;;;9.93;2.28;;;;;;;;;;5034931;28;20457;-60
2024/01/03 10:31:43;;;;;;;14.30;2.85;;;;;;;;;;5051238;28;20086;-60
2024/01/03 10:34:16;;;;;;;12.10;2.28;;;;;;;;;;5051427;28;20041;-61
2024/01/03 10:36:46;;;;;;;11.07;2.50;;;;;;;;;;5038646;28;20036;-61
2024/01/03 10:39:14;;;;;;;13.68;2.20;;;;;;;;;;5052599;28;20057;-61
2024/01/03 10:41:44;;;;;;;9.43;2.03;;;;;;;;;;5052528;28;20068;-61
2024/01/03 10:44:12;;;;;;;7.13;1.80;;;;;;;;;;5051915;28;20075;-60
2024/01/03 10:46:40;;;;;;;10.40;2.10;;;;;;;;;;5034591;28;20422;-61
2024/01/03 10:49:07;;;;;;;9.25;1.73;;;;;;;;;;5051200;28;20021;-61
2024/01/03 10:51:40;;;;;;;9.63;1.88;;;;;;;;;;5051945;28;20060;-60
2024/01/03 10:54:07;;;;;;;7.40;2.30;;;;;;;;;;5050831;28;20052;-61
2024/01/03 10:56:35;;;;;;;10.18;1.98;;;;;;;;;;5051782;28;20056;-62
2024/01/03 10:59:02;;;;;;;11.48;1.95;;;;;;;;;;5050926;28;20025;-61
2024/01/03 11:01:31;;;;;;;11.38;2.00;;;;;;;;;;5051183;28;20033;-61
2024/01/03 11:04:10;;;;;;;8.05;1.80;;;;;;;;;;5033025;28;20033;-61
2024/01/03 11:06:49;;;;;;;7.85;1.77;;;;;;;;;;5051363;28;20033;-61
2024/01/03 11:09:14;;;;;;;9.38;1.75;;;;;;;;;;5051529;28;20087;-60
2024/01/03 11:11:40;;;;;;;7.72;1.88;;;;;;;;;;5051655;28;20025;-60
2024/01/03 11:14:18;;;;;;;8.30;1.45;;;;;;;;;;5050291;28;20071;-60
2024/01/03 11:16:44;;;;;;;5.43;1.50;;;;;;;;;;5051174;28;20458;-61
2024/01/03 11:19:10;;;;;;;7.03;1.50;;;;;;;;;;5050636;28;20377;-60
2024/01/03 11:21:35;;;;;;;9.13;1.77;;;;;;;;;;5051507;28;20029;-60
2024/01/03 11:24:24;;;;;;;8.18;1.70;;;;;;;;;;5050624;28;20444;-60
2024/01/03 11:26:56;;;;;;;5.68;1.65;;;;;;;;;;5050269;28;20123;-60
2024/01/03 11:29:44;;;;;;;8.00;1.92;;;;;;;;;;5050900;28;20040;-60
2024/01/03 11:32:29;;;;;;;9.57;2.28;;;;;;;;;;5052829;28;20029;-61
2024/01/03 11:34:56;;;;;;;6.65;1.85;;;;;;;;;;5054189;28;20029;-60
2024/01/03 11:37:21;;;;;;;11.40;2.10;;;;;;;;;;5055389;28;20378;-60
2024/01/03 11:39:52;;;;;;;6.57;1.83;;;;;;;;;;5054811;28;20021;-62
2024/01/03 11:42:21;;;;;;;5.35;1.80;;;;;;;;;;5055293;28;20040;-61
2024/01/03 11:44:58;;;;;;;7.28;1.75;;;;;;;;;;5054526;28;20094;-61
2024/01/03 11:47:24;;;;;;;5.00;1.35;;;;;;;;;;5054948;28;20341;-61
2024/01/03 11:49:56;;;;;;;6.10;1.55;;;;;;;;;;5054409;28;20021;-60
2024/01/03 11:52:21;;;;;;;4.22;1.70;;;;;;;;;;5054787;28;20072;-60
2024/01/03 11:54:49;;;;;;;7.97;1.92;;;;;;;;;;5054421;28;20064;-62
2024/01/03 11:57:15;;;;;;;7.72;2.10;;;;;;;;;;5054482;28;20477;-60
2024/01/03 11:59:41;;;;;;;11.07;1.67;;;;;;;;;;5054370;28;20057;-61
2024/01/03 12:02:07;;;;;;;5.60;1.70;;;;;;;;;;5053941;28;20135;-62
2024/01/03 12:04:32;;;;;;;6.80;1.70;;;;;;;;;;5054635;28;20469;-62
2024/01/03 12:06:59;;;;;;;6.30;1.70;;;;;;;;;;5053705;28;20032;-61
2024/01/03 12:09:29;;;;;;;8.15;1.77;;;;;;;;;;5054631;28;20040;-61
2024/01/03 12:11:54;;;;;;;7.27;1.83;;;;;;;;;;5053740;28;20033;-61
2024/01/03 12:14:20;;;;;;;5.78;1.58;;;;;;;;;;5053452;28;20477;-63
2024/01/03 12:16:47;;;;;;;11.27;2.10;;;;;;;;;;5053924;28;20060;-61
2024/01/03 12:19:24;;;;;;;5.68;1.80;;;;;;;;;;5053588;28;20095;-62
2024/01/03 12:22:00;;;;;;;7.88;2.30;;;;;;;;;;5053884;28;20029;-61
2024/01/03 12:24:42;;;;;;;7.82;1.92;;;;;;;;;;5054022;28;20059;-61
2024/01/03 12:27:11;;;;;;;6.93;1.55;;;;;;;;;;5053278;28;20024;-61
2024/01/03 12:29:38;;;;;;;8.10;1.70;;;;;;;;;;5053447;28;20477;-62
2024/01/03 12:32:12;;;;;;;4.97;2.20;;;;;;;;;;5053202;28;20033;-60
2024/01/03 12:34:37;;;;;;;13.05;1.90;;;;;;;;;;5053605;28;20025;-62
2024/01/03 12:37:03;;;;;;;8.65;2.30;;;;;;;;;;5052988;28;20484;-62
2024/01/03 12:39:34;;;;;;;7.63;1.75;;;;;;;;;;5054038;28;20079;-61
2024/01/03 12:42:01;;;;;;;6.90;1.70;;;;;;;;;;5053138;28;20071;-62
2024/01/03 12:44:27;;;;;;;10.98;1.83;;;;;;;;;;5052420;28;20044;-61
2024/01/03 12:46:52;;;;;;;7.65;1.52;;;;;;;;;;5052960;28;20029;-60
2024/01/03 12:49:17;;;;;;;8.45;2.15;;;;;;;;;;5053291;28;20075;-59
2024/01/03 12:51:43;;;;;;;6.97;1.63;;;;;;;;;;5035867;28;20021;-59
2024/01/03 12:54:08;;;;;;;8.50;1.65;;;;;;;;;;5052773;28;20450;-62
2024/01/03 12:56:33;;;;;;;4.95;1.80;;;;;;;;;;5053594;28;20037;-62
2024/01/03 12:58:59;;;;;;;6.70;2.15;;;;;;;;;;5051789;28;20036;-61
2024/01/03 13:01:24;;;;;;;7.88;1.70;;;;;;;;;;5053206;28;20418;-60
2024/01/03 13:03:50;;;;;;;6.78;1.60;;;;;;;;;;5053505;28;20029;-60
2024/01/03 13:06:15;;;;;;;10.43;1.73;;;;;;;;;;5052613;28;20032;-60
2024/01/03 13:08:40;;;;;;;5.45;1.63;;;;;;;;;;5053501;28;20031;-62
2024/01/03 13:11:06;;;;;;;6.57;1.73;;;;;;;;;;5052378;28;20124;-60
2024/01/03 13:13:31;;;;;;;7.50;1.90;;;;;;;;;;5053334;28;20036;-59
2024/01/03 13:15:56;;;;;;;11.02;1.73;;;;;;;;;;5051777;28;20033;-60
2024/01/03 13:18:22;;;;;;;7.82;2.28;;;;;;;;;;5052987;28;20029;-60
2024/01/03 13:20:47;;;;;;;9.43;1.67;;;;;;;;;;5035454;28;20033;-59
2024/01/03 13:23:13;;;;;;;5.35;1.52;;;;;;;;;;5052114;28;20514;-58
2024/01/03 13:25:38;;;;;;;5.70;1.40;;;;;;;;;;5053187;28;20047;-60
2024/01/03 13:28:04;;;;;;;3.55;1.70;;;;;;;;;;5052129;28;20377;-60
2024/01/03 13:30:29;;;;;;;5.20;1.25;;;;;;;;;;5053160;28;20033;-60
2024/01/03 13:32:55;;;;;;;9.02;1.45;;;;;;;;;;5052370;28;20025;-60
2024/01/03 13:35:20;;;;;;;3.67;1.20;;;;;;;;;;5052746;28;20377;-61
2024/01/03 13:37:45;;;;;;;6.57;1.10;;;;;;;;;;5052880;28;20098;-60
2024/01/03 13:40:11;;;;;;;5.88;1.60;;;;;;;;;;5052119;28;20029;-60
2024/01/03 13:42:36;;;;;;;5.78;1.35;;;;;;;;;;5052636;28;20025;-58
2024/01/03 13:45:02;;;;;;;3.67;1.23;;;;;;;;;;5033556;28;20025;-57
2024/01/03 13:47:27;;;;;;;5.68;1.73;;;;;;;;;;5052575;28;20527;-59
2024/01/03 13:49:54;;;;;;;4.13;1.10;;;;;;;;;;5052435;28;20382;-58
2024/01/03 13:52:19;;;;;;;4.60;1.33;;;;;;;;;;5052195;28;20031;-58
2024/01/03 13:54:45;;;;;;;3.13;1.08;;;;;;;;;;5052121;28;20444;-59
2024/01/03 13:57:10;;;;;;;3.90;1.02;;;;;;;;;;5051621;28;20529;-61
2024/01/03 13:59:36;;;;;;;1.67;0.93;;;;;;;;;;5051323;28;20048;-61
2024/01/03 14:02:02;;;;;;;3.47;1.13;;;;;;;;;;5033606;28;20373;-60
2024/01/03 14:04:27;;;;;;;3.38;1.05;;;;;;;;;;5052240;28;20025;-60
2024/01/03 14:06:52;;;;;;;1.33;0.80;;;;;;;;;;5052322;28;20055;-60
2024/01/03 14:09:18;;;;;;;3.08;1.27;;;;;;;;;;5051556;28;20051;-60
2024/01/03 14:11:43;;;;;;;2.10;1.00;;;;;;;;;;5034628;28;20063;-60
2024/01/03 14:14:09;;;;;;;3.35;1.05;;;;;;;;;;5051501;28;20028;-61
2024/01/03 14:16:34;;;;;;;3.13;1.00;;;;;;;;;;5051869;28;20521;-60
2024/01/03 14:19:00;;;;;;;5.45;1.33;;;;;;;;;;5050813;28;20037;-60
2024/01/03 14:21:25;;;;;;;3.63;1.35;;;;;;;;;;5052259;28;20025;-60
2024/01/03 14:23:52;;;;;;;4.28;1.00;;;;;;;;;;5052080;28;20466;-60
2024/01/03 14:26:19;;;;;;;2.42;1.20;;;;;;;;;;5050889;28;20202;-59
2024/01/03 14:28:45;;;;;;;5.53;1.58;;;;;;;;;;5051269;28;20438;-60
2024/01/03 14:31:11;;;;;;;5.13;1.27;;;;;;;;;;5051239;28;20083;-61
2024/01/03 14:33:36;;;;;;;5.30;1.30;;;;;;;;;;5034287;28;20028;-61
2024/01/03 14:36:02;;;;;;;6.68;1.38;;;;;;;;;;5051023;28;20430;-61